createdAt,value
2023-03-10T00:01:22.843Z,9.60
2023-03-10T00:03:50.194Z,9.60
2023-03-10T00:06:19.362Z,9.60
2023-03-10T00:08:46.617Z,9.60
2023-03-10T00:11:14.138Z,9.60
2023-03-10T00:13:41.417Z,9.60
2023-03-10T00:16:08.496Z,9.60
2023-03-10T00:18:35.639Z,9.60
2023-03-10T00:21:02.471Z,9.60
2023-03-10T00:23:29.342Z,9.70
2023-03-10T00:26:00.747Z,9.70
2023-03-10T00:28:28.398Z,9.70
2023-03-10T00:31:04.416Z,9.70
2023-03-10T00:33:33.583Z,9.70
2023-03-10T00:36:11.576Z,9.80
2023-03-10T00:38:39.374Z,9.80
2023-03-10T00:41:08.870Z,9.80
2023-03-10T00:43:36.447Z,9.90
2023-03-10T00:46:04.293Z,9.90
2023-03-10T00:48:31.208Z,9.90
2023-03-10T00:50:59.042Z,9.90
2023-03-10T00:53:26.272Z,9.90
2023-03-10T00:56:14.233Z,9.90
2023-03-10T00:58:42.031Z,9.90
2023-03-10T01:01:18.234Z,9.90
2023-03-10T01:03:45.742Z,9.90
2023-03-10T01:06:12.543Z,10.00
2023-03-10T01:08:39.839Z,10.00
2023-03-10T01:11:07.008Z,10.00
2023-03-10T01:13:33.980Z,10.00
2023-03-10T01:16:00.795Z,10.00
2023-03-10T01:18:27.660Z,10.00
2023-03-10T01:20:54.448Z,10.00
2023-03-10T01:23:24.455Z,10.10
2023-03-10T01:25:51.948Z,10.10
2023-03-10T01:28:20.394Z,10.20
2023-03-10T01:30:48.590Z,10.20
2023-03-10T01:33:17.534Z,10.20
2023-03-10T01:35:44.819Z,10.20
2023-03-10T01:38:11.932Z,10.20
2023-03-10T01:40:39.490Z,10.20
2023-03-10T01:43:19.985Z,10.20
2023-03-10T01:45:47.632Z,10.10
2023-03-10T01:48:17.526Z,10.10
2023-03-10T01:50:46.993Z,10.00
2023-03-10T01:53:16.070Z,10.00
2023-03-10T01:55:48.355Z,10.00
2023-03-10T01:58:17.106Z,10.00
2023-03-10T02:00:43.978Z,10.00
2023-03-10T02:03:19.710Z,9.90
2023-03-10T02:05:51.603Z,9.90
2023-03-10T02:08:19.662Z,9.80
2023-03-10T02:10:47.208Z,9.80
2023-03-10T02:13:14.246Z,9.80
2023-03-10T02:15:41.612Z,9.80
2023-03-10T02:18:12.105Z,9.80
2023-03-10T02:21:16.115Z,9.80
2023-03-10T02:24:00.614Z,9.70
2023-03-10T02:27:10.465Z,9.70
2023-03-10T02:30:12.756Z,9.70
2023-03-10T02:32:44.044Z,9.70
2023-03-10T02:35:11.319Z,9.70
2023-03-10T02:37:46.852Z,9.70
2023-03-10T02:40:37.417Z,9.60
2023-03-10T02:43:13.196Z,9.60
2023-03-10T02:45:43.467Z,9.60
2023-03-10T02:48:13.683Z,9.60
2023-03-10T02:50:45.220Z,9.60
2023-03-10T02:53:16.558Z,9.60
2023-03-10T02:55:43.878Z,9.60
2023-03-10T02:58:11.742Z,9.60
2023-03-10T03:00:41.053Z,9.60
2023-03-10T03:03:09.059Z,9.60
2023-03-10T03:05:36.720Z,9.60
2023-03-10T03:08:05.275Z,9.60
2023-03-10T03:10:32.929Z,9.60
2023-03-10T03:13:00.134Z,9.60
2023-03-10T03:15:27.970Z,9.60
2023-03-10T03:17:54.878Z,9.60
2023-03-10T03:20:22.400Z,9.60
2023-03-10T03:22:50.800Z,9.70
2023-03-10T03:25:19.746Z,9.70
2023-03-10T03:27:47.183Z,9.70
2023-03-10T03:30:15.887Z,9.70
2023-03-10T03:32:42.987Z,9.70
2023-03-10T03:35:20.877Z,9.70
2023-03-10T03:37:47.786Z,9.70
2023-03-10T03:40:15.510Z,9.70
2023-03-10T03:42:47.712Z,9.70
2023-03-10T03:45:17.297Z,9.70
2023-03-10T03:47:45.299Z,9.70
2023-03-10T03:50:16.631Z,9.70
2023-03-10T03:52:43.794Z,9.70
2023-03-10T03:55:14.393Z,9.80
2023-03-10T03:57:41.687Z,9.80
2023-03-10T04:00:12.805Z,9.80
2023-03-10T04:02:42.740Z,9.70
2023-03-10T04:05:09.763Z,9.70
2023-03-10T04:07:39.730Z,9.70
2023-03-10T04:10:10.677Z,9.70
2023-03-10T04:12:37.535Z,9.60
2023-03-10T04:15:07.056Z,9.70
2023-03-10T04:17:34.634Z,9.70
2023-03-10T04:20:07.283Z,9.70
2023-03-10T04:22:37.440Z,9.70
2023-03-10T04:25:06.557Z,9.60
2023-03-10T04:27:34.982Z,9.60
2023-03-10T04:30:03.456Z,9.60
2023-03-10T04:32:32.305Z,9.60
2023-03-10T04:34:59.969Z,9.60
2023-03-10T04:37:27.237Z,9.50
2023-03-10T04:39:54.425Z,9.60
2023-03-10T04:42:21.459Z,9.50
2023-03-10T04:44:48.324Z,9.60
2023-03-10T04:47:15.235Z,9.60
2023-03-10T04:49:42.100Z,9.60
2023-03-10T04:52:11.996Z,9.60
2023-03-10T04:54:38.766Z,9.50
2023-03-10T04:57:05.617Z,9.50
2023-03-10T04:59:32.521Z,9.50
2023-03-10T05:02:00.316Z,9.50
2023-03-10T05:04:27.262Z,9.50
2023-03-10T05:06:55.466Z,9.50
2023-03-10T05:09:36.834Z,9.50
2023-03-10T05:12:05.395Z,9.50
2023-03-10T05:14:34.854Z,9.50
2023-03-10T05:17:01.709Z,9.50
2023-03-10T05:19:29.611Z,9.50
2023-03-10T05:21:58.930Z,9.50
2023-03-10T05:24:25.925Z,9.50
2023-03-10T05:26:52.746Z,9.40
2023-03-10T05:29:20.792Z,9.40
2023-03-10T05:31:52.766Z,9.40
2023-03-10T05:34:26.841Z,9.40
2023-03-10T05:36:56.897Z,9.40
2023-03-10T05:39:24.142Z,9.40
2023-03-10T05:41:54.377Z,9.40
2023-03-10T05:44:22.534Z,9.40
2023-03-10T05:46:49.789Z,9.40
2023-03-10T05:49:16.810Z,9.40
2023-03-10T05:51:43.844Z,9.40
2023-03-10T05:54:11.761Z,9.50
2023-03-10T05:56:38.545Z,9.50
2023-03-10T05:59:07.233Z,9.50
2023-03-10T06:01:37.134Z,9.50
2023-03-10T06:04:04.328Z,9.50
2023-03-10T06:06:31.162Z,9.50
2023-03-10T06:08:58.205Z,9.40
2023-03-10T06:11:25.087Z,9.40
2023-03-10T06:13:51.944Z,9.40
2023-03-10T06:16:18.907Z,9.40
2023-03-10T06:18:45.711Z,9.40
2023-03-10T06:21:14.721Z,9.40
2023-03-10T06:23:41.842Z,9.30
2023-03-10T06:26:12.875Z,9.30
2023-03-10T06:28:42.426Z,9.30
2023-03-10T06:31:18.203Z,9.30
2023-03-10T06:33:45.203Z,9.40
2023-03-10T06:36:13.909Z,9.40
2023-03-10T06:38:40.827Z,9.40
2023-03-10T06:41:08.069Z,9.40
2023-03-10T06:43:35.554Z,9.40
2023-03-10T06:46:03.235Z,9.40
2023-03-10T06:48:30.281Z,9.50
2023-03-10T06:50:57.073Z,9.50
2023-03-10T06:53:23.874Z,9.50
2023-03-10T06:56:04.783Z,9.50
2023-03-10T06:58:33.854Z,9.50
2023-03-10T07:01:01.091Z,9.50
2023-03-10T07:03:28.961Z,9.60
2023-03-10T07:05:58.986Z,9.50
2023-03-10T07:08:29.652Z,9.60
2023-03-10T07:10:56.891Z,9.60
2023-03-10T07:13:23.794Z,9.70
2023-03-10T07:15:50.649Z,9.80
2023-03-10T07:18:17.469Z,9.80
2023-03-10T07:20:45.069Z,9.80
2023-03-10T07:23:12.576Z,9.80
2023-03-10T07:25:39.948Z,9.80
2023-03-10T07:28:07.901Z,9.80
2023-03-10T07:30:34.881Z,9.80
2023-03-10T07:33:01.708Z,9.80
2023-03-10T07:35:28.531Z,9.80
2023-03-10T07:37:55.305Z,9.90
2023-03-10T07:40:25.172Z,9.90
2023-03-10T07:42:54.520Z,10.00
2023-03-10T07:45:22.484Z,9.90
2023-03-10T07:47:51.054Z,9.90
2023-03-10T07:50:18.838Z,9.90
2023-03-10T07:52:46.372Z,9.80
2023-03-10T07:55:13.721Z,9.80
2023-03-10T07:57:40.684Z,9.80
2023-03-10T08:00:08.250Z,9.80
2023-03-10T08:02:41.430Z,9.80
2023-03-10T08:05:09.881Z,9.90
2023-03-10T08:07:37.891Z,9.90
2023-03-10T08:10:05.782Z,9.90
2023-03-10T08:12:33.670Z,10.00
2023-03-10T08:15:00.687Z,10.00
2023-03-10T08:17:30.827Z,10.00
2023-03-10T08:19:58.506Z,10.00
2023-03-10T08:22:25.689Z,10.10
2023-03-10T08:24:52.913Z,10.10
2023-03-10T08:27:19.690Z,10.10
2023-03-10T08:29:46.476Z,10.20
2023-03-10T08:32:13.286Z,10.30
2023-03-10T08:34:40.158Z,10.40
2023-03-10T08:37:07.038Z,10.40
2023-03-10T08:39:33.839Z,10.60
2023-03-10T08:42:00.872Z,10.60
2023-03-10T08:44:27.659Z,10.70
2023-03-10T08:46:55.073Z,10.70
2023-03-10T08:49:22.494Z,10.70
2023-03-10T08:51:49.569Z,10.70
2023-03-10T08:54:20.566Z,10.70
2023-03-10T08:56:48.016Z,10.80
2023-03-10T08:59:14.796Z,10.90
2023-03-10T09:01:41.920Z,11.10
2023-03-10T09:04:09.383Z,11.20
2023-03-10T09:06:36.160Z,11.20
2023-03-10T09:09:05.046Z,11.30
2023-03-10T09:11:33.688Z,11.30
2023-03-10T09:14:02.024Z,11.20
2023-03-10T09:16:29.887Z,11.20
2023-03-10T09:18:57.945Z,11.20
2023-03-10T09:21:25.557Z,11.20
2023-03-10T09:23:53.116Z,11.20
2023-03-10T09:26:20.952Z,11.20
2023-03-10T09:28:49.865Z,11.20
2023-03-10T09:31:20.571Z,11.20
2023-03-10T09:33:48.343Z,11.20
2023-03-10T09:36:16.307Z,11.20
2023-03-10T09:38:43.665Z,11.20
2023-03-10T09:41:44.952Z,11.30
2023-03-10T09:44:47.079Z,11.40
2023-03-10T09:47:49.670Z,11.40
2023-03-10T09:50:35.963Z,11.50
2023-03-10T09:53:11.499Z,11.50
2023-03-10T09:55:47.375Z,11.60
2023-03-10T09:58:31.955Z,11.70
2023-03-10T10:01:00.261Z,11.80
2023-03-10T10:03:52.222Z,11.90
2023-03-10T10:06:29.972Z,11.90
2023-03-10T10:09:07.453Z,12.00
2023-03-10T10:11:36.756Z,12.00
2023-03-10T10:14:31.825Z,12.00
2023-03-10T10:17:01.940Z,12.00
2023-03-10T10:19:28.973Z,12.10
2023-03-10T10:22:27.472Z,12.10
2023-03-10T10:25:19.553Z,12.10
2023-03-10T10:27:48.341Z,12.10
2023-03-10T10:30:29.513Z,12.20
2023-03-10T10:33:05.461Z,12.30
2023-03-10T10:35:41.086Z,12.40
2023-03-10T10:38:23.062Z,12.50
2023-03-10T10:40:56.649Z,12.50
2023-03-10T10:43:23.486Z,12.70
2023-03-10T10:45:56.815Z,12.80
2023-03-10T10:48:46.072Z,12.90
2023-03-10T10:51:29.155Z,12.80
2023-03-10T10:53:57.684Z,12.90
2023-03-10T10:56:25.187Z,13.20
2023-03-10T10:59:19.496Z,13.50
2023-03-10T11:01:59.646Z,13.60
2023-03-10T11:04:29.547Z,13.40
2023-03-10T11:07:20.028Z,13.20
2023-03-10T11:09:47.864Z,13.20
2023-03-10T11:12:34.057Z,13.40
2023-03-10T11:15:04.211Z,13.40
2023-03-10T11:17:33.755Z,13.40
2023-03-10T11:20:25.493Z,13.40
2023-03-10T11:23:18.440Z,13.30
2023-03-10T11:26:09.973Z,13.30
2023-03-10T11:28:43.726Z,13.50
2023-03-10T11:31:10.546Z,13.70
2023-03-10T11:34:00.359Z,13.80
2023-03-10T11:36:40.763Z,13.90
2023-03-10T11:39:43.111Z,13.90
2023-03-10T11:42:32.981Z,13.70
2023-03-10T11:45:17.958Z,13.70
2023-03-10T11:48:02.055Z,13.70
2023-03-10T11:50:36.713Z,13.60
2023-03-10T11:53:18.506Z,13.60
2023-03-10T11:55:46.736Z,13.70
2023-03-10T11:58:39.580Z,13.80
2023-03-10T12:01:08.945Z,13.80
2023-03-10T12:03:44.340Z,13.80
2023-03-10T12:06:17.317Z,13.80
2023-03-10T12:08:44.966Z,13.70
2023-03-10T12:11:19.097Z,13.60
2023-03-10T12:13:49.977Z,13.50
2023-03-10T12:16:24.192Z,13.20
2023-03-10T12:18:51.288Z,13.10
2023-03-10T12:21:19.744Z,13.00
2023-03-10T12:23:48.982Z,12.90
2023-03-10T12:26:35.901Z,12.70
2023-03-10T12:29:20.663Z,12.60
2023-03-10T12:31:51.201Z,12.40
2023-03-10T12:34:28.590Z,12.20
2023-03-10T12:37:04.773Z,12.00
2023-03-10T12:39:38.387Z,11.60
2023-03-10T12:42:28.910Z,11.50
2023-03-10T12:45:17.274Z,11.30
2023-03-10T12:48:03.204Z,11.20
2023-03-10T12:50:54.907Z,11.20
2023-03-10T12:53:30.389Z,11.10
2023-03-10T12:56:12.510Z,11.00
2023-03-10T12:58:52.956Z,11.00
2023-03-10T13:01:24.144Z,10.90
2023-03-10T13:03:53.245Z,10.90
2023-03-10T13:06:31.551Z,10.90
2023-03-10T13:09:14.409Z,10.90
2023-03-10T13:11:43.923Z,10.90
2023-03-10T13:14:16.816Z,10.90
2023-03-10T13:17:00.078Z,11.00
2023-03-10T13:19:33.445Z,11.00
2023-03-10T13:22:01.106Z,11.10
2023-03-10T13:24:30.569Z,11.10
2023-03-10T13:27:24.638Z,11.10
2023-03-10T13:29:57.860Z,11.10
2023-03-10T13:32:26.095Z,11.10
2023-03-10T13:34:53.124Z,11.10
2023-03-10T13:37:19.881Z,11.20
2023-03-10T13:39:46.722Z,11.20
2023-03-10T13:42:37.210Z,11.20
2023-03-10T13:45:22.235Z,11.20
2023-03-10T13:47:50.406Z,11.10
2023-03-10T13:50:17.947Z,11.00
2023-03-10T13:52:57.628Z,10.90
2023-03-10T13:55:24.562Z,10.80
2023-03-10T13:57:52.980Z,10.70
2023-03-10T14:00:22.884Z,10.70
2023-03-10T14:02:51.817Z,10.70
2023-03-10T14:05:39.891Z,10.70
2023-03-10T14:08:16.647Z,10.70
2023-03-10T14:10:43.516Z,10.60
2023-03-10T14:13:40.201Z,10.60
2023-03-10T14:16:07.661Z,10.50
2023-03-10T14:18:35.341Z,10.50
2023-03-10T14:21:32.289Z,10.40
2023-03-10T14:24:17.161Z,10.40
2023-03-10T14:26:44.000Z,10.30
2023-03-10T14:29:17.425Z,10.20
2023-03-10T14:31:50.222Z,10.20
2023-03-10T14:34:17.037Z,10.20
2023-03-10T14:36:43.831Z,10.20
2023-03-10T14:39:10.596Z,10.20
2023-03-10T14:41:37.375Z,10.10
2023-03-10T14:44:04.219Z,10.10
2023-03-10T14:46:34.948Z,10.00
2023-03-10T14:49:01.934Z,9.90
2023-03-10T14:51:35.565Z,9.90
2023-03-10T14:54:03.727Z,9.80
2023-03-10T14:56:31.662Z,9.80
2023-03-10T14:59:01.992Z,9.80
2023-03-10T15:01:29.269Z,9.80
2023-03-10T15:03:56.146Z,9.60
2023-03-10T15:06:23.009Z,9.60
2023-03-10T15:08:49.792Z,9.40
2023-03-10T15:11:24.030Z,9.30
2023-03-10T15:13:57.767Z,9.10
2023-03-10T15:16:24.665Z,9.10
2023-03-10T15:18:53.054Z,9.00
2023-03-10T15:21:20.019Z,8.90
2023-03-10T15:23:46.782Z,8.90
2023-03-10T15:26:14.179Z,8.90
2023-03-10T15:28:40.955Z,8.90
2023-03-10T15:31:07.916Z,8.80
2023-03-10T15:33:34.781Z,8.80
2023-03-10T15:36:01.667Z,8.80
2023-03-10T15:38:28.545Z,8.70
2023-03-10T15:40:56.821Z,8.50
2023-03-10T15:43:23.675Z,8.40
2023-03-10T15:45:51.013Z,8.30
2023-03-10T15:48:18.100Z,8.20
2023-03-10T15:50:46.954Z,8.10
2023-03-10T15:53:14.203Z,8.00
2023-03-10T15:55:42.107Z,8.00
2023-03-10T15:58:12.433Z,7.90
2023-03-10T16:00:39.295Z,7.80
2023-03-10T16:03:06.115Z,7.70
2023-03-10T16:05:34.314Z,7.70
2023-03-10T16:08:01.146Z,7.70
2023-03-10T16:10:28.185Z,7.70
2023-03-10T16:12:54.996Z,7.70
2023-03-10T16:15:21.816Z,7.60
2023-03-10T16:17:48.589Z,7.60
2023-03-10T16:20:18.862Z,7.60
2023-03-10T16:22:45.964Z,7.50
2023-03-10T16:25:15.295Z,7.50
2023-03-10T16:27:43.363Z,7.50
2023-03-10T16:30:11.135Z,7.40
2023-03-10T16:32:38.052Z,7.40
2023-03-10T16:35:05.413Z,7.40
2023-03-10T16:37:32.267Z,7.40
2023-03-10T16:39:59.128Z,7.40
2023-03-10T16:42:28.689Z,7.30
2023-03-10T16:44:56.825Z,7.30
2023-03-10T16:47:24.227Z,7.30
2023-03-10T16:49:51.073Z,7.30
2023-03-10T16:52:17.873Z,7.20
2023-03-10T16:54:46.458Z,7.30
2023-03-10T16:57:14.070Z,7.20
2023-03-10T16:59:42.011Z,6.90
2023-03-10T17:02:18.856Z,6.50
2023-03-10T17:04:46.059Z,6.20
2023-03-10T17:07:14.057Z,5.80
2023-03-10T17:09:40.987Z,5.50
2023-03-10T17:12:08.015Z,5.30
2023-03-10T17:14:35.041Z,5.10
2023-03-10T17:17:02.131Z,4.90
2023-03-10T17:19:29.901Z,4.70
2023-03-10T17:21:58.279Z,4.50
2023-03-10T17:24:25.894Z,4.40
2023-03-10T17:26:53.113Z,4.20
2023-03-10T17:29:19.961Z,4.00
2023-03-10T17:31:51.347Z,3.70
2023-03-10T17:34:19.373Z,3.40
2023-03-10T17:36:48.904Z,3.20
2023-03-10T17:39:19.039Z,2.90
2023-03-10T17:41:46.581Z,2.80
2023-03-10T17:44:13.319Z,2.60
2023-03-10T17:46:42.943Z,2.60
2023-03-10T17:49:13.032Z,2.50
2023-03-10T17:51:44.192Z,2.30
2023-03-10T17:54:22.598Z,2.30
2023-03-10T17:56:49.993Z,2.20
2023-03-10T17:59:17.655Z,2.10
2023-03-10T18:01:46.189Z,2.10
2023-03-10T18:04:13.415Z,2.00
2023-03-10T18:06:40.746Z,1.90
2023-03-10T18:09:11.057Z,1.90
2023-03-10T18:11:38.785Z,1.90
2023-03-10T18:14:06.293Z,1.90
2023-03-10T18:16:34.692Z,1.90
2023-03-10T18:19:01.784Z,1.90
2023-03-10T18:21:28.749Z,1.80
2023-03-10T18:23:55.779Z,1.80
2023-03-10T18:26:26.168Z,1.70
2023-03-10T18:28:53.236Z,1.70
2023-03-10T18:31:29.667Z,1.70
2023-03-10T18:33:56.628Z,1.70
2023-03-10T18:36:24.604Z,1.60
2023-03-10T18:38:51.902Z,1.60
2023-03-10T18:41:24.777Z,1.60
2023-03-10T18:43:51.871Z,1.60
2023-03-10T18:46:19.187Z,1.50
2023-03-10T18:48:46.057Z,1.50
2023-03-10T18:51:13.612Z,1.50
2023-03-10T18:53:40.432Z,1.50
2023-03-10T18:56:07.780Z,1.50
2023-03-10T18:58:35.086Z,1.50
2023-03-10T19:01:01.936Z,1.50
2023-03-10T19:03:29.913Z,1.50
2023-03-10T19:05:57.188Z,1.50
2023-03-10T19:08:25.554Z,1.50
2023-03-10T19:11:00.277Z,1.50
2023-03-10T19:13:29.186Z,1.50
2023-03-10T19:15:56.656Z,1.50
2023-03-10T19:18:23.895Z,1.50
2023-03-10T19:20:51.002Z,1.50
2023-03-10T19:23:17.826Z,1.50
2023-03-10T19:25:44.677Z,1.50
2023-03-10T19:28:11.547Z,1.50
2023-03-10T19:30:42.614Z,1.50
2023-03-10T19:33:10.850Z,1.40
2023-03-10T19:35:38.586Z,1.40
2023-03-10T19:38:05.839Z,1.40
2023-03-10T19:40:32.771Z,1.40
2023-03-10T19:42:59.623Z,1.40
2023-03-10T19:45:26.408Z,1.30
2023-03-10T19:47:55.031Z,1.30
2023-03-10T19:50:21.858Z,1.30
2023-03-10T19:52:49.751Z,1.30
2023-03-10T19:55:23.979Z,1.30
2023-03-10T19:57:52.599Z,1.30
2023-03-10T20:00:25.190Z,1.30
2023-03-10T20:02:52.859Z,1.20
2023-03-10T20:05:20.049Z,1.20
2023-03-10T20:07:47.703Z,1.20
2023-03-10T20:10:16.794Z,1.20
2023-03-10T20:12:44.488Z,1.20
2023-03-10T20:15:11.490Z,1.30
2023-03-10T20:17:38.682Z,1.30
2023-03-10T20:20:10.145Z,1.20
2023-03-10T20:22:39.418Z,1.20
2023-03-10T20:25:08.506Z,1.20
2023-03-10T20:27:35.380Z,1.20
2023-03-10T20:30:06.452Z,1.30
2023-03-10T20:32:33.892Z,1.20
2023-03-10T20:35:01.684Z,1.20
2023-03-10T20:37:28.477Z,1.20
2023-03-10T20:39:55.567Z,1.20
2023-03-10T20:42:22.420Z,1.20
2023-03-10T20:44:49.689Z,1.20
2023-03-10T20:47:16.511Z,1.20
2023-03-10T20:49:45.512Z,1.30
2023-03-10T20:52:12.513Z,1.30
2023-03-10T20:54:39.534Z,1.30
2023-03-10T20:57:06.560Z,1.30
2023-03-10T20:59:33.363Z,1.30
2023-03-10T21:02:00.485Z,1.30
2023-03-10T21:04:28.098Z,1.30
2023-03-10T21:06:55.073Z,1.30
2023-03-10T21:09:21.879Z,1.30
2023-03-10T21:11:49.080Z,1.30
2023-03-10T21:14:16.817Z,1.30
2023-03-10T21:16:46.448Z,1.30
2023-03-10T21:19:13.566Z,1.30
2023-03-10T21:21:40.786Z,1.40
2023-03-10T21:24:07.597Z,1.30
2023-03-10T21:26:34.450Z,1.40
2023-03-10T21:29:01.325Z,1.40
2023-03-10T21:31:28.115Z,1.40
2023-03-10T21:33:55.069Z,1.40
2023-03-10T21:36:23.761Z,1.40
2023-03-10T21:38:51.595Z,1.40
2023-03-10T21:41:27.336Z,1.40
2023-03-10T21:43:55.625Z,1.40
2023-03-10T21:46:23.955Z,1.40
2023-03-10T21:48:52.186Z,1.40
2023-03-10T21:51:21.219Z,1.40
2023-03-10T21:53:48.022Z,1.40
2023-03-10T21:56:17.674Z,1.40
2023-03-10T21:58:45.670Z,1.40
2023-03-10T22:01:14.930Z,1.40
2023-03-10T22:03:42.876Z,1.40
2023-03-10T22:06:10.402Z,1.40
2023-03-10T22:08:37.721Z,1.40
2023-03-10T22:11:08.539Z,1.40
2023-03-10T22:13:38.568Z,1.40
2023-03-10T22:16:07.303Z,1.40
2023-03-10T22:18:34.559Z,1.40
2023-03-10T22:21:01.386Z,1.40
2023-03-10T22:23:29.225Z,1.40
2023-03-10T22:25:55.999Z,1.40
2023-03-10T22:28:23.110Z,1.40
2023-03-10T22:30:49.901Z,1.40
2023-03-10T22:33:16.663Z,1.40
2023-03-10T22:35:47.343Z,1.40
2023-03-10T22:38:14.168Z,1.40
2023-03-10T22:40:40.947Z,1.40
2023-03-10T22:43:07.701Z,1.40
2023-03-10T22:45:35.294Z,1.40
2023-03-10T22:48:05.925Z,1.40
2023-03-10T22:50:38.330Z,1.40
2023-03-10T22:53:14.888Z,1.40
2023-03-10T22:55:43.488Z,1.40
2023-03-10T22:58:11.111Z,1.40
2023-03-10T23:00:39.473Z,1.40
2023-03-10T23:03:07.318Z,1.40
2023-03-10T23:05:34.532Z,1.40
2023-03-10T23:08:01.359Z,1.30
2023-03-10T23:10:33.725Z,1.40
2023-03-10T23:13:02.546Z,1.40
2023-03-10T23:15:33.331Z,1.40
2023-03-10T23:18:00.645Z,1.40
2023-03-10T23:20:34.138Z,1.40
2023-03-10T23:23:02.427Z,1.40
2023-03-10T23:25:34.987Z,1.30
2023-03-10T23:28:03.110Z,1.40
2023-03-10T23:30:30.808Z,1.40
2023-03-10T23:32:57.816Z,1.40
2023-03-10T23:35:30.722Z,1.40
2023-03-10T23:37:59.894Z,1.40
2023-03-10T23:40:28.771Z,1.40
2023-03-10T23:42:58.011Z,1.40
2023-03-10T23:45:26.857Z,1.30
2023-03-10T23:47:55.504Z,1.30
2023-03-10T23:50:34.140Z,1.40
2023-03-10T23:53:02.081Z,1.40
2023-03-10T23:55:32.293Z,1.40
2023-03-10T23:57:59.106Z,1.30
